Miramar Marine Corps Air Station
KNKX : rendu visible

Aérodrome :











RETROUVEZ-NOUS SUR...

 
LOGIN :

S'inscrire | Disclaimer

   EN    FR    IT 

 









Légende :    VFR   VFR Marginal   IFR   IFR Intensif   IFR Très Intensif
Visi : 
Plafond : 
>= 8 km
>= 3000ft
5 à 8 km
1000 à 3000 ft
1500m à 5 km
500 à 1000 ft
800 à 1500m
200 à 500 ft
< 800m
< 200 ft
Symboles :   Orages  Brouillard  Fortes neiges  Fortes précipitations  Vent > 20 kt






- Altitude de l'aérodrome : 477 ft


KNKX - Miramar Marine Corps Air Station

DERNIER METAR :
  • 261655Z VRB05KT 10SM CLR 24/16 A2990 RMK AO2 SLP120 T02390161

METARs EXPIRÉS :
  • 261602Z VRB04KT 7SM SCT009 21/16 A2991 RMK AO2 T02110161
  • 261530Z 00000KT 5SM HZ OVC006 19/16 A2990 RMK AO2 CIG 004V009 T01890161
  • 261455Z 00000KT 4SM BR OVC003 18/16 A2990 RMK AO2 SLP120 T01780161 51003
  • 261434Z 08003KT 2 1/2SM BR OVC003 18/16 A2990 RMK AO2 T01780161

TAF TAF KNKX
Valide du 26 à 15h jusqu'au 27 à 15h UTC


2615/2715 VRB06KT 9999 FEW030 QNH2982INS
BECMG 2617/2619 29009KT 9999 FEW015 QNH2980INS
TEMPO 2709/2714 3200 BR OVC040 T29/2621Z T14/2712Z
FIR KZLA / Amérique du Nord



MET'MAP, la Météo Aéronautique d'un coup d'oeil ! - Copyright ORBIFLY Décembre 2007 - Disclaimer

ORBIFLY MET'MAP TEAM :

Programmation & Développement : Alexandra Zaïnal
Sur une idée originale de : Baudouin d'Aumeries
Assistance à la programmation : Marc-Olivier Méhu
Soutien technique & logistique : Manuel Goepfert

Contact : metmap@orbifly.com




SOURCES & CREDITS :

   NOAA       Earth
Advisory